Clifton, Maryland
Current Conditions -  °F | °C
As of 2:12 AM on Friday 19 Dec 2014 (Local Time) from KMTN Reporting Station
Overcast Overcast  
Wind Chill: 30°   Ceiling: 3300
Heat Index: 36°   Visibility: 10mi
Dew Point: 27°   Wind: 7mph
Humidity: 70%   Direction: 260°W
Pressure: 30.11"   Gusts: NA
Location:  39.315°N, 76.5768°W
Report Text: KMTN 190712Z AUTO 26006KT 10SM OVC033 02/M03 A3011 RMK AO2
Loading
Personal Weather Stations






























Interactive Weather Map New forecast layout! Learn more

10-Day Weather Forecast

Advertisements
Track Severe Weather on mobile